createdAt,value
2019-03-22T00:00:26.209Z,102490.52
2019-03-22T00:02:55.370Z,102480.86
2019-03-22T00:05:24.867Z,102488.25
2019-03-22T00:07:54.062Z,102486.45
2019-03-22T00:10:23.198Z,102479.80
2019-03-22T00:12:52.376Z,102486.77
2019-03-22T00:15:22.576Z,102490.70
2019-03-22T00:17:51.771Z,102486.37
2019-03-22T00:20:20.883Z,102491.17
2019-03-22T00:22:50.368Z,102493.31
2019-03-22T00:25:19.901Z,102489.72
2019-03-22T00:27:49.033Z,102490.11
2019-03-22T00:30:18.167Z,102483.16
2019-03-22T00:32:47.306Z,102477.07
2019-03-22T00:35:16.476Z,102484.56
2019-03-22T00:37:45.903Z,102485.30
2019-03-22T00:40:15.385Z,102479.59
2019-03-22T00:42:45.344Z,102477.87
2019-03-22T00:45:17.863Z,102477.53
2019-03-22T00:47:46.971Z,102477.95
2019-03-22T00:50:16.109Z,102478.86
2019-03-22T00:52:45.238Z,102477.93
2019-03-22T00:55:14.396Z,102481.39
2019-03-22T00:57:43.611Z,102477.91
2019-03-22T01:00:13.389Z,102476.22
2019-03-22T01:02:42.573Z,102467.88
2019-03-22T01:05:11.730Z,102470.87
2019-03-22T01:07:40.974Z,102472.11
2019-03-22T01:10:10.402Z,102471.64
2019-03-22T01:12:39.568Z,102468.98
2019-03-22T01:15:12.754Z,102475.50
2019-03-22T01:17:41.976Z,102473.28
2019-03-22T01:20:11.774Z,102478.52
2019-03-22T01:22:40.949Z,102469.77
2019-03-22T01:25:10.078Z,102470.99
2019-03-22T01:27:40.942Z,102467.88
2019-03-22T01:30:10.901Z,102461.67
2019-03-22T01:32:40.053Z,102466.42
2019-03-22T01:35:09.162Z,102476.42
2019-03-22T01:37:38.354Z,102476.34
2019-03-22T01:40:08.337Z,102476.42
2019-03-22T01:42:37.812Z,102471.67
2019-03-22T01:45:08.887Z,102473.11
2019-03-22T01:47:38.482Z,102467.52
2019-03-22T01:50:11.855Z,102474.53
2019-03-22T01:52:42.351Z,102471.02
2019-03-22T01:55:11.491Z,102468.34
2019-03-22T01:57:51.902Z,102467.42
2019-03-22T02:00:11.982Z,102461.78
2019-03-22T02:02:41.136Z,102471.83
2019-03-22T02:05:10.278Z,102470.01
2019-03-22T02:07:39.454Z,102465.59
2019-03-22T02:10:12.525Z,102469.05
2019-03-22T02:12:42.018Z,102474.67
2019-03-22T02:15:16.236Z,102475.43
2019-03-22T02:17:45.778Z,102470.09
2019-03-22T02:20:14.975Z,102469.70
2019-03-22T02:22:44.298Z,102461.31
2019-03-22T02:25:13.490Z,102448.62
2019-03-22T02:27:44.634Z,102456.97
2019-03-22T02:30:14.189Z,102444.28
2019-03-22T02:32:43.322Z,102442.34
2019-03-22T02:35:27.691Z,102445.22
2019-03-22T02:37:43.352Z,102442.09
2019-03-22T02:40:12.645Z,102432.91
2019-03-22T02:42:42.106Z,102435.89
2019-03-22T02:45:11.385Z,102443.23
2019-03-22T02:47:40.542Z,102440.52
2019-03-22T02:50:18.121Z,102441.30
2019-03-22T02:52:41.562Z,102439.48
2019-03-22T02:55:13.350Z,102442.09
2019-03-22T02:57:42.526Z,102448.53
2019-03-22T03:00:12.121Z,102441.13
2019-03-22T03:02:41.256Z,102439.45
2019-03-22T03:05:12.588Z,102442.07
2019-03-22T03:07:44.940Z,102447.80
2019-03-22T03:10:14.124Z,102435.56
2019-03-22T03:12:43.609Z,102436.85
2019-03-22T03:15:12.859Z,102430.73
2019-03-22T03:17:41.967Z,102432.83
2019-03-22T03:20:12.382Z,102426.73
2019-03-22T03:22:41.568Z,102436.73
2019-03-22T03:25:10.822Z,102429.72
2019-03-22T03:27:40.377Z,102435.75
2019-03-22T03:30:11.928Z,102432.65
2019-03-22T03:32:41.851Z,102441.30
2019-03-22T03:35:11.059Z,102439.05
2019-03-22T03:37:40.172Z,102433.92
2019-03-22T03:40:09.709Z,102427.88
2019-03-22T03:42:39.444Z,102427.06
2019-03-22T03:45:10.872Z,102420.03
2019-03-22T03:47:40.375Z,102420.37
2019-03-22T03:50:10.185Z,102414.17
2019-03-22T03:52:39.721Z,102418.91
2019-03-22T03:55:09.295Z,102421.52
2019-03-22T03:57:38.472Z,102425.91
2019-03-22T04:00:08.027Z,102421.23
2019-03-22T04:02:37.408Z,102427.02
2019-03-22T04:05:07.004Z,102438.41
2019-03-22T04:07:36.143Z,102431.95
2019-03-22T04:10:05.687Z,102429.00
2019-03-22T04:12:35.147Z,102423.34
2019-03-22T04:15:06.464Z,102424.66
2019-03-22T04:17:35.603Z,102429.06
2019-03-22T04:20:05.511Z,102431.69
2019-03-22T04:22:36.307Z,102428.22
2019-03-22T04:25:05.960Z,102432.58
2019-03-22T04:27:35.111Z,102428.20
2019-03-22T04:30:05.256Z,102436.06
2019-03-22T04:32:37.168Z,102429.55
2019-03-22T04:35:06.749Z,102430.02
2019-03-22T04:37:40.626Z,102427.00
2019-03-22T04:40:26.899Z,102426.13
2019-03-22T04:42:55.958Z,102424.88
2019-03-22T04:45:25.329Z,102436.25
2019-03-22T04:47:57.064Z,102431.48
2019-03-22T04:50:26.234Z,102433.73
2019-03-22T04:52:55.368Z,102430.31
2019-03-22T04:55:26.934Z,102417.33
2019-03-22T04:57:56.089Z,102412.14
2019-03-22T05:00:25.513Z,102413.09
2019-03-22T05:02:55.360Z,102407.02
2019-03-22T05:05:25.104Z,102407.48
2019-03-22T05:07:54.344Z,102418.47
2019-03-22T05:10:23.472Z,102420.20
2019-03-22T05:12:56.651Z,102425.84
2019-03-22T05:15:27.206Z,102428.92
2019-03-22T05:17:56.291Z,102432.00
2019-03-22T05:20:25.787Z,102433.71
2019-03-22T05:22:54.968Z,102433.72
2019-03-22T05:25:24.079Z,102438.12
2019-03-22T05:27:53.509Z,102442.55
2019-03-22T05:31:02.967Z,102446.08
2019-03-22T05:33:34.265Z,102445.17
2019-03-22T05:36:03.428Z,102448.32
2019-03-22T05:38:32.562Z,102447.91
2019-03-22T05:41:01.734Z,102454.04
2019-03-22T05:43:33.947Z,102449.69
2019-03-22T05:46:03.204Z,102456.25
2019-03-22T05:48:32.367Z,102459.34
2019-03-22T05:51:01.919Z,102466.83
2019-03-22T05:53:31.073Z,102472.18
2019-03-22T05:56:00.258Z,102472.52
2019-03-22T05:58:29.366Z,102469.44
2019-03-22T06:00:58.501Z,102474.69
2019-03-22T06:03:27.651Z,102482.48
2019-03-22T06:05:56.794Z,102491.66
2019-03-22T06:08:25.936Z,102494.77
2019-03-22T06:10:55.048Z,102498.30
2019-03-22T06:13:27.707Z,102498.77
2019-03-22T06:16:00.122Z,102497.97
2019-03-22T06:18:32.109Z,102498.03
2019-03-22T06:21:01.256Z,102492.35
2019-03-22T06:23:30.477Z,102498.53
2019-03-22T06:26:02.749Z,102504.24
2019-03-22T06:28:31.828Z,102502.88
2019-03-22T06:31:01.020Z,102492.86
2019-03-22T06:33:30.148Z,102492.46
2019-03-22T06:35:59.584Z,102494.25
2019-03-22T06:38:28.710Z,102489.95
2019-03-22T06:40:58.210Z,102486.48
2019-03-22T06:43:29.804Z,102495.64
2019-03-22T06:45:58.975Z,102500.98
2019-03-22T06:48:28.170Z,102504.44
2019-03-22T06:50:57.328Z,102508.80
2019-03-22T06:53:29.663Z,102507.55
2019-03-22T06:55:58.824Z,102502.78
2019-03-22T06:58:28.260Z,102505.33
2019-03-22T07:00:58.289Z,102511.03
2019-03-22T07:03:27.431Z,102513.17
2019-03-22T07:05:57.982Z,102519.77
2019-03-22T07:08:27.078Z,102522.82
2019-03-22T07:10:56.235Z,102524.19
2019-03-22T07:13:32.225Z,102521.26
2019-03-22T07:16:01.342Z,102520.88
2019-03-22T07:18:30.817Z,102510.85
2019-03-22T07:20:59.940Z,102510.52
2019-03-22T07:23:31.831Z,102513.64
2019-03-22T07:26:00.960Z,102509.69
2019-03-22T07:28:30.495Z,102508.98
2019-03-22T07:30:59.618Z,102505.55
2019-03-22T07:33:28.729Z,102506.45
2019-03-22T07:35:58.146Z,102505.59
2019-03-22T07:38:27.254Z,102506.87
2019-03-22T07:40:56.720Z,102505.55
2019-03-22T07:43:25.844Z,102502.47
2019-03-22T07:45:54.984Z,102508.59
2019-03-22T07:48:24.837Z,102497.25
2019-03-22T07:50:54.195Z,102497.25
2019-03-22T07:53:23.305Z,102490.27
2019-03-22T07:55:52.410Z,102488.95
2019-03-22T07:58:22.322Z,102494.23
2019-03-22T08:00:51.425Z,102491.63
2019-03-22T08:03:20.558Z,102492.55
2019-03-22T08:05:51.708Z,102483.75
2019-03-22T08:08:20.900Z,102481.12
2019-03-22T08:10:51.286Z,102481.56
2019-03-22T08:13:21.396Z,102477.59
2019-03-22T08:15:50.543Z,102477.59
2019-03-22T08:18:20.054Z,102481.55
2019-03-22T08:20:49.113Z,102486.38
2019-03-22T08:23:19.997Z,102484.63
2019-03-22T08:25:49.747Z,102478.05
2019-03-22T08:28:18.877Z,102468.86
2019-03-22T08:30:48.028Z,102462.72
2019-03-22T08:33:17.453Z,102450.84
2019-03-22T08:35:49.365Z,102449.08
2019-03-22T08:38:18.464Z,102457.86
2019-03-22T08:40:47.552Z,102459.17
2019-03-22T08:43:19.284Z,102466.64
2019-03-22T08:45:48.415Z,102457.41
2019-03-22T08:48:17.583Z,102462.20
2019-03-22T08:50:47.078Z,102459.98
2019-03-22T08:53:16.708Z,102461.23
2019-03-22T08:55:46.163Z,102443.89
2019-03-22T08:58:18.494Z,102443.89
2019-03-22T09:00:57.417Z,102445.96
2019-03-22T09:03:18.451Z,102434.27
2019-03-22T09:05:47.498Z,102428.23
2019-03-22T09:08:17.446Z,102421.06
2019-03-22T09:10:46.553Z,102416.01
2019-03-22T09:13:15.681Z,102413.98
2019-03-22T09:15:44.782Z,102410.19
2019-03-22T09:18:15.615Z,102403.26
2019-03-22T09:20:45.002Z,102411.56
2019-03-22T09:23:14.850Z,102409.63
2019-03-22T09:25:43.927Z,102409.12
2019-03-22T09:28:13.347Z,102406.52
2019-03-22T09:30:42.587Z,102407.74
2019-03-22T09:33:13.370Z,102408.23
2019-03-22T09:35:42.994Z,102396.89
2019-03-22T09:38:15.215Z,102394.59
2019-03-22T09:40:44.346Z,102388.44
2019-03-22T09:43:13.473Z,102390.59
2019-03-22T09:45:42.578Z,102379.66
2019-03-22T09:48:12.446Z,102382.59
2019-03-22T09:50:45.326Z,102373.28
2019-03-22T09:53:14.450Z,102366.41
2019-03-22T09:55:43.571Z,102368.83
2019-03-22T09:58:12.730Z,102370.73
2019-03-22T10:00:42.322Z,102368.95
2019-03-22T10:03:11.453Z,102366.67
2019-03-22T10:05:41.153Z,102355.31
2019-03-22T10:08:10.290Z,102352.80
2019-03-22T10:10:41.501Z,102345.39
2019-03-22T10:13:10.651Z,102340.48
2019-03-22T10:15:39.719Z,102343.66
2019-03-22T10:18:09.182Z,102335.06
2019-03-22T10:20:39.109Z,102325.55
2019-03-22T10:23:08.235Z,102331.24
2019-03-22T10:25:40.613Z,102323.01
2019-03-22T10:28:09.800Z,102326.14
2019-03-22T10:30:38.903Z,102323.88
2019-03-22T10:33:08.090Z,102320.16
2019-03-22T10:35:37.514Z,102322.11
2019-03-22T10:38:15.995Z,102323.94
2019-03-22T10:40:38.433Z,102323.83
2019-03-22T10:43:07.817Z,102310.38
2019-03-22T10:45:37.189Z,102309.81
2019-03-22T10:48:09.857Z,102301.88
2019-03-22T10:50:40.359Z,102302.62
2019-03-22T10:53:09.501Z,102300.07
2019-03-22T10:55:39.248Z,102299.73
2019-03-22T10:58:20.171Z,102294.54
2019-03-22T11:00:40.098Z,102291.23
2019-03-22T11:03:09.614Z,102282.31
2019-03-22T11:05:38.784Z,102284.56
2019-03-22T11:08:08.584Z,102279.04
2019-03-22T11:10:38.026Z,102284.22
2019-03-22T11:13:07.441Z,102274.86
2019-03-22T11:15:36.518Z,102273.13
2019-03-22T11:18:05.826Z,102261.19
2019-03-22T11:20:37.476Z,102268.60
2019-03-22T11:23:07.002Z,102261.94
2019-03-22T11:25:36.105Z,102259.75
2019-03-22T11:28:05.497Z,102261.86
2019-03-22T11:30:34.902Z,102251.99
2019-03-22T11:33:07.832Z,102248.10
2019-03-22T11:35:37.358Z,102246.15
2019-03-22T11:38:06.782Z,102238.93
2019-03-22T11:40:39.264Z,102235.84
2019-03-22T11:43:09.114Z,102228.34
2019-03-22T11:45:38.352Z,102217.23
2019-03-22T11:48:07.772Z,102221.73
2019-03-22T11:50:40.182Z,102214.70
2019-03-22T11:53:09.650Z,102207.77
2019-03-22T11:55:38.756Z,102205.03
2019-03-22T11:58:08.135Z,102200.28
2019-03-22T12:00:37.289Z,102196.88
2019-03-22T12:03:06.387Z,102199.55
2019-03-22T12:05:40.281Z,102196.48
2019-03-22T12:08:06.684Z,102189.07
2019-03-22T12:10:35.791Z,102196.21
2019-03-22T12:13:04.901Z,102181.36
2019-03-22T12:15:34.058Z,102185.25
2019-03-22T12:18:03.155Z,102178.51
2019-03-22T12:20:32.365Z,102179.94
2019-03-22T12:23:01.916Z,102167.23
2019-03-22T12:25:31.064Z,102162.74
2019-03-22T12:28:00.185Z,102158.37
2019-03-22T12:30:29.368Z,102158.77
2019-03-22T12:33:10.624Z,102155.68
2019-03-22T12:35:39.804Z,102153.85
2019-03-22T12:38:08.920Z,102152.91
2019-03-22T12:40:38.117Z,102151.34
2019-03-22T12:43:07.675Z,102139.88
2019-03-22T12:45:37.098Z,102133.44
2019-03-22T12:48:06.594Z,102136.02
2019-03-22T12:50:36.519Z,102131.80
2019-03-22T12:53:05.740Z,102121.51
2019-03-22T12:55:35.214Z,102122.22
2019-03-22T12:58:07.694Z,102112.73
2019-03-22T13:00:37.936Z,102112.76
2019-03-22T13:03:07.726Z,102105.55
2019-03-22T13:05:36.907Z,102098.67
2019-03-22T13:08:06.377Z,102097.15
2019-03-22T13:10:35.524Z,102095.02
2019-03-22T13:13:05.761Z,102082.16
2019-03-22T13:15:34.868Z,102081.03
2019-03-22T13:18:06.302Z,102072.66
2019-03-22T13:20:39.374Z,102074.63
2019-03-22T13:23:09.220Z,102072.88
2019-03-22T13:25:41.906Z,102063.69
2019-03-22T13:28:11.569Z,102062.38
2019-03-22T13:30:41.042Z,102056.86
2019-03-22T13:33:10.481Z,102057.08
2019-03-22T13:35:46.038Z,102050.53
2019-03-22T13:38:16.470Z,102050.14
2019-03-22T13:40:45.650Z,102051.09
2019-03-22T13:43:17.044Z,102044.36
2019-03-22T13:45:46.291Z,102040.83
2019-03-22T13:48:15.432Z,102039.27
2019-03-22T13:50:44.626Z,102035.62
2019-03-22T13:53:13.767Z,102040.50
2019-03-22T13:55:42.913Z,102034.61
2019-03-22T13:58:22.868Z,102029.77
2019-03-22T14:00:52.245Z,102029.48
2019-03-22T14:03:23.405Z,102032.35
2019-03-22T14:05:52.544Z,102026.80
2019-03-22T14:08:26.960Z,102023.66
2019-03-22T14:10:56.292Z,102024.05
2019-03-22T14:13:25.411Z,102025.00
2019-03-22T14:15:54.587Z,102023.09
2019-03-22T14:18:24.010Z,102017.23
2019-03-22T14:20:53.128Z,102010.41
2019-03-22T14:23:22.220Z,102011.65
2019-03-22T14:25:53.056Z,102011.95
2019-03-22T14:28:23.261Z,102001.19
2019-03-22T14:30:52.528Z,102006.56
2019-03-22T14:33:21.897Z,102000.79
2019-03-22T14:35:51.328Z,101993.67
2019-03-22T14:38:20.525Z,101996.95
2019-03-22T14:40:53.142Z,101990.33
2019-03-22T14:43:22.295Z,101990.20
2019-03-22T14:45:51.925Z,101987.37
2019-03-22T14:48:21.674Z,101981.59
2019-03-22T14:50:51.206Z,101972.58
2019-03-22T14:53:20.355Z,101973.82
2019-03-22T14:55:49.919Z,101974.02
2019-03-22T14:58:26.716Z,101970.62
2019-03-22T15:00:55.851Z,101954.59
2019-03-22T15:03:27.415Z,101954.59
2019-03-22T15:05:57.752Z,101952.84
2019-03-22T15:08:27.244Z,101947.38
2019-03-22T15:10:59.618Z,101950.78
2019-03-22T15:13:44.696Z,101946.55
2019-03-22T15:16:34.389Z,101948.09
2019-03-22T15:19:21.630Z,101940.23
2019-03-22T15:22:17.776Z,101939.77
2019-03-22T15:24:59.047Z,101934.32
2019-03-22T15:28:02.726Z,101937.77
2019-03-22T15:31:02.508Z,101928.84
2019-03-22T15:33:54.155Z,101934.65
2019-03-22T15:36:38.211Z,101920.16
2019-03-22T15:39:21.965Z,101916.91
2019-03-22T15:41:51.545Z,101919.54
2019-03-22T15:44:20.760Z,101919.05
2019-03-22T15:46:50.243Z,101916.62
2019-03-22T15:49:19.354Z,101919.08
2019-03-22T15:51:48.921Z,101917.17
2019-03-22T15:54:18.148Z,101923.94
2019-03-22T15:56:50.373Z,101915.23
2019-03-22T15:59:19.468Z,101907.16
2019-03-22T16:01:48.806Z,101910.21
2019-03-22T16:04:18.777Z,101909.55
2019-03-22T16:06:49.711Z,101908.47
2019-03-22T16:09:19.159Z,101902.69
2019-03-22T16:11:49.001Z,101904.11
2019-03-22T16:14:18.129Z,101901.31
2019-03-22T16:16:47.556Z,101893.80
2019-03-22T16:19:16.996Z,101897.31
2019-03-22T16:21:46.133Z,101888.50
2019-03-22T16:24:15.719Z,101885.67
2019-03-22T16:26:44.834Z,101877.92
2019-03-22T16:29:13.971Z,101884.23
2019-03-22T16:31:45.354Z,101878.38
2019-03-22T16:34:17.590Z,101881.11
2019-03-22T16:36:49.688Z,101880.53
2019-03-22T16:39:22.232Z,101873.19
2019-03-22T16:41:55.772Z,101869.16
2019-03-22T16:44:25.280Z,101872.49
2019-03-22T16:46:54.393Z,101873.34
2019-03-22T16:49:23.479Z,101872.49
2019-03-22T16:51:52.984Z,101865.57
2019-03-22T16:54:22.133Z,101865.18
2019-03-22T16:56:51.270Z,101872.85
2019-03-22T16:59:21.751Z,101867.25
2019-03-22T17:01:50.836Z,101869.31
2019-03-22T17:04:19.990Z,101873.73
2019-03-22T17:06:49.434Z,101865.28
2019-03-22T17:09:18.510Z,101868.97
2019-03-22T17:11:47.640Z,101865.03
2019-03-22T17:14:21.747Z,101872.00
2019-03-22T17:16:53.808Z,101872.41
2019-03-22T17:19:22.900Z,101866.60
2019-03-22T17:21:52.045Z,101861.92
2019-03-22T17:24:21.277Z,101867.53
2019-03-22T17:26:50.429Z,101870.55
2019-03-22T17:29:19.741Z,101861.92
2019-03-22T17:31:48.991Z,101867.50
2019-03-22T17:34:18.912Z,101860.89
2019-03-22T17:36:48.054Z,101866.27
2019-03-22T17:39:17.455Z,101861.48
2019-03-22T17:41:46.703Z,101864.70
2019-03-22T17:44:16.197Z,101862.20
2019-03-22T17:46:45.374Z,101867.41
2019-03-22T17:49:14.680Z,101857.50
2019-03-22T17:51:43.775Z,101857.75
2019-03-22T17:54:12.972Z,101854.13
2019-03-22T17:56:42.168Z,101856.73
2019-03-22T17:59:11.406Z,101861.30
2019-03-22T18:01:41.870Z,101854.02
2019-03-22T18:04:11.137Z,101853.27
2019-03-22T18:06:40.387Z,101855.28
2019-03-22T18:09:10.271Z,101851.56
2019-03-22T18:11:39.406Z,101852.25
2019-03-22T18:14:08.574Z,101855.62
2019-03-22T18:16:38.570Z,101847.28
2019-03-22T18:19:09.453Z,101857.52
2019-03-22T18:21:38.721Z,101857.81
2019-03-22T18:24:20.256Z,101863.71
2019-03-22T18:26:49.365Z,101860.41
2019-03-22T18:29:18.576Z,101865.52
2019-03-22T18:31:51.138Z,101866.58
2019-03-22T18:34:33.779Z,101868.17
2019-03-22T18:36:54.629Z,101861.45
2019-03-22T18:39:24.252Z,101859.76
2019-03-22T18:41:53.535Z,101864.23
2019-03-22T18:44:26.150Z,101865.58
2019-03-22T18:46:57.222Z,101864.48
2019-03-22T18:49:27.906Z,101871.39
2019-03-22T18:51:57.732Z,101875.62
2019-03-22T18:54:26.912Z,101866.20
2019-03-22T18:56:56.419Z,101869.58
2019-03-22T18:59:25.631Z,101871.41
2019-03-22T19:01:54.891Z,101878.98
2019-03-22T19:04:24.444Z,101883.81
2019-03-22T19:06:53.617Z,101886.05
2019-03-22T19:09:22.838Z,101886.14
2019-03-22T19:11:52.240Z,101884.03
2019-03-22T19:14:21.741Z,101883.95
2019-03-22T19:16:54.626Z,101881.56
2019-03-22T19:19:25.043Z,101878.55
2019-03-22T19:21:54.291Z,101883.95
2019-03-22T19:24:23.466Z,101880.89
2019-03-22T19:26:52.645Z,101878.67
2019-03-22T19:29:21.789Z,101878.95
2019-03-22T19:31:51.156Z,101873.75
2019-03-22T19:34:20.327Z,101877.91
2019-03-22T19:36:49.442Z,101881.94
2019-03-22T19:39:18.579Z,101881.04
2019-03-22T19:41:47.716Z,101881.93
2019-03-22T19:44:18.098Z,101877.87
2019-03-22T19:46:47.580Z,101881.61
2019-03-22T19:49:16.766Z,101884.52
2019-03-22T19:51:46.637Z,101887.16
2019-03-22T19:54:16.099Z,101886.78
2019-03-22T19:56:48.525Z,101885.16
2019-03-22T19:59:17.641Z,101886.56
2019-03-22T20:01:47.481Z,101882.12
2019-03-22T20:04:16.609Z,101882.49
2019-03-22T20:06:46.497Z,101886.67
2019-03-22T20:09:17.711Z,101892.86
2019-03-22T20:11:46.854Z,101891.89
2019-03-22T20:14:15.979Z,101886.91
2019-03-22T20:16:46.499Z,101892.47
2019-03-22T20:19:15.663Z,101887.80
2019-03-22T20:21:48.204Z,101885.47
2019-03-22T20:24:18.280Z,101888.16
2019-03-22T20:26:50.522Z,101892.02
2019-03-22T20:29:19.620Z,101888.66
2019-03-22T20:31:48.831Z,101887.12
2019-03-22T20:34:18.280Z,101892.97
2019-03-22T20:36:47.377Z,101888.78
2019-03-22T20:39:16.490Z,101885.05
2019-03-22T20:41:53.144Z,101877.75
2019-03-22T20:44:22.435Z,101881.95
2019-03-22T20:46:51.572Z,101880.23
2019-03-22T20:49:22.989Z,101880.27
2019-03-22T20:52:00.445Z,101879.93
2019-03-22T20:54:29.720Z,101870.84
2019-03-22T20:57:01.724Z,101882.33
2019-03-22T20:59:31.057Z,101876.72
2019-03-22T21:02:00.292Z,101879.78
2019-03-22T21:04:32.606Z,101879.57
2019-03-22T21:07:01.878Z,101880.98
2019-03-22T21:09:31.646Z,101883.71
2019-03-22T21:12:03.963Z,101879.44
2019-03-22T21:14:33.689Z,101879.95
2019-03-22T21:17:05.898Z,101883.08
2019-03-22T21:19:35.106Z,101878.32
2019-03-22T21:22:04.537Z,101877.58
2019-03-22T21:24:34.458Z,101877.58
2019-03-22T21:27:03.641Z,101873.67
2019-03-22T21:29:43.496Z,101881.23
2019-03-22T21:32:04.616Z,101884.33
2019-03-22T21:34:34.085Z,101880.00
2019-03-22T21:37:03.249Z,101885.81
2019-03-22T21:39:32.435Z,101885.52
2019-03-22T21:42:01.606Z,101886.53
2019-03-22T21:44:31.018Z,101879.52
2019-03-22T21:47:00.708Z,101876.52
2019-03-22T21:49:30.205Z,101878.01
2019-03-22T21:51:59.824Z,101863.63
2019-03-22T21:54:28.994Z,101871.58
2019-03-22T21:57:01.583Z,101871.58
2019-03-22T21:59:30.729Z,101874.67
2019-03-22T22:01:59.903Z,101870.99
2019-03-22T22:04:29.051Z,101870.99
2019-03-22T22:06:58.861Z,101867.19
2019-03-22T22:09:28.007Z,101868.61
2019-03-22T22:11:57.871Z,101870.34
2019-03-22T22:14:27.761Z,101866.41
2019-03-22T22:16:57.599Z,101866.42
2019-03-22T22:19:27.079Z,101868.17
2019-03-22T22:21:56.598Z,101869.95
2019-03-22T22:24:33.373Z,101865.13
2019-03-22T22:27:13.486Z,101860.72
2019-03-22T22:29:34.914Z,101862.48
2019-03-22T22:32:04.418Z,101856.89
2019-03-22T22:34:33.529Z,101853.45
2019-03-22T22:37:05.764Z,101851.30
2019-03-22T22:39:35.291Z,101856.17
2019-03-22T22:42:05.208Z,101852.17
2019-03-22T22:44:34.330Z,101852.59
2019-03-22T22:47:03.468Z,101844.30
2019-03-22T22:49:32.621Z,101847.88
2019-03-22T22:52:01.798Z,101844.30
2019-03-22T22:54:30.974Z,101840.40
2019-03-22T22:57:03.888Z,101833.03
2019-03-22T22:59:36.066Z,101833.90
2019-03-22T23:02:05.316Z,101834.38
2019-03-22T23:04:37.021Z,101829.14
2019-03-22T23:07:06.208Z,101825.59
2019-03-22T23:09:37.229Z,101825.92
2019-03-22T23:12:07.077Z,101825.49
2019-03-22T23:14:38.130Z,101815.41
2019-03-22T23:17:07.346Z,101811.89
2019-03-22T23:19:37.102Z,101809.29
2019-03-22T23:22:06.220Z,101802.31
2019-03-22T23:24:35.357Z,101801.91
2019-03-22T23:27:04.501Z,101799.20
2019-03-22T23:29:38.254Z,101804.42
2019-03-22T23:32:06.394Z,101801.73
2019-03-22T23:34:35.582Z,101798.38
2019-03-22T23:37:07.022Z,101801.12
2019-03-22T23:39:35.534Z,101800.92
2019-03-22T23:42:04.781Z,101800.92
2019-03-22T23:44:34.126Z,101807.97
2019-03-22T23:47:08.950Z,101805.78
2019-03-22T23:49:38.054Z,101793.09
2019-03-22T23:52:07.186Z,101794.42
2019-03-22T23:54:36.325Z,101796.17
2019-03-22T23:57:05.770Z,101791.44
2019-03-22T23:59:34.889Z,101791.52
